sensor_id;sensor_type;location;lat;lon;timestamp;temperature;humidity
5711;DHT22;61291;52.524;13.422;2023-04-26T00:02:01;4.50;92.90
5711;DHT22;61291;52.524;13.422;2023-04-26T00:04:28;4.50;93.00
5711;DHT22;61291;52.524;13.422;2023-04-26T00:06:55;4.40;93.10
5711;DHT22;61291;52.524;13.422;2023-04-26T00:09:20;4.40;93.20
5711;DHT22;61291;52.524;13.422;2023-04-26T00:11:46;4.40;93.50
5711;DHT22;61291;52.524;13.422;2023-04-26T00:14:12;4.40;93.60
5711;DHT22;61291;52.524;13.422;2023-04-26T00:16:37;4.40;93.80
5711;DHT22;61291;52.524;13.422;2023-04-26T00:19:03;4.30;93.50
5711;DHT22;61291;52.524;13.422;2023-04-26T00:21:29;4.30;93.50
5711;DHT22;61291;52.524;13.422;2023-04-26T00:23:54;4.20;93.60
5711;DHT22;61291;52.524;13.422;2023-04-26T00:26:20;4.20;93.80
5711;DHT22;61291;52.524;13.422;2023-04-26T00:28:45;4.10;94.20
5711;DHT22;61291;52.524;13.422;2023-04-26T00:31:14;4.10;93.90
5711;DHT22;61291;52.524;13.422;2023-04-26T00:33:40;4.10;94.10
5711;DHT22;61291;52.524;13.422;2023-04-26T00:36:06;4.10;94.20
5711;DHT22;61291;52.524;13.422;2023-04-26T00:38:31;4.10;94.40
5711;DHT22;61291;52.524;13.422;2023-04-26T00:40:57;4.10;94.50
5711;DHT22;61291;52.524;13.422;2023-04-26T00:43:22;4.10;94.60
5711;DHT22;61291;52.524;13.422;2023-04-26T00:45:48;4.00;94.60
5711;DHT22;61291;52.524;13.422;2023-04-26T00:48:14;4.00;94.80
5711;DHT22;61291;52.524;13.422;2023-04-26T00:50:40;4.00;94.80
5711;DHT22;61291;52.524;13.422;2023-04-26T00:53:07;3.90;94.80
5711;DHT22;61291;52.524;13.422;2023-04-26T00:55:33;4.00;95.50
5711;DHT22;61291;52.524;13.422;2023-04-26T00:57:59;3.90;95.20
5711;DHT22;61291;52.524;13.422;2023-04-26T01:00:24;3.90;95.70
5711;DHT22;61291;52.524;13.422;2023-04-26T01:02:50;3.80;95.50
5711;DHT22;61291;52.524;13.422;2023-04-26T01:05:16;3.80;95.80
5711;DHT22;61291;52.524;13.422;2023-04-26T01:07:42;3.70;95.80
5711;DHT22;61291;52.524;13.422;2023-04-26T01:10:08;3.80;96.00
5711;DHT22;61291;52.524;13.422;2023-04-26T01:12:34;3.80;96.90
5711;DHT22;61291;52.524;13.422;2023-04-26T01:15:01;3.80;97.10
5711;DHT22;61291;52.524;13.422;2023-04-26T01:17:27;3.80;97.10
5711;DHT22;61291;52.524;13.422;2023-04-26T01:19:52;3.80;97.10
5711;DHT22;61291;52.524;13.422;2023-04-26T01:22:18;3.80;98.10
5711;DHT22;61291;52.524;13.422;2023-04-26T01:24:44;3.80;98.10
5711;DHT22;61291;52.524;13.422;2023-04-26T01:27:11;3.90;98.30
5711;DHT22;61291;52.524;13.422;2023-04-26T01:29:37;3.90;97.90
5711;DHT22;61291;52.524;13.422;2023-04-26T01:32:02;3.80;97.90
5711;DHT22;61291;52.524;13.422;2023-04-26T01:34:28;3.80;97.90
5711;DHT22;61291;52.524;13.422;2023-04-26T01:36:53;3.70;98.00
5711;DHT22;61291;52.524;13.422;2023-04-26T01:39:19;3.80;98.50
5711;DHT22;61291;52.524;13.422;2023-04-26T01:41:45;3.70;98.20
5711;DHT22;61291;52.524;13.422;2023-04-26T01:44:10;3.70;98.20
5711;DHT22;61291;52.524;13.422;2023-04-26T01:46:36;3.60;98.20
5711;DHT22;61291;52.524;13.422;2023-04-26T01:49:01;3.60;98.50
5711;DHT22;61291;52.524;13.422;2023-04-26T01:51:27;3.60;98.60
5711;DHT22;61291;52.524;13.422;2023-04-26T01:53:52;3.70;99.30
5711;DHT22;61291;52.524;13.422;2023-04-26T01:56:19;3.70;99.60
5711;DHT22;61291;52.524;13.422;2023-04-26T01:58:44;3.70;99.40
5711;DHT22;61291;52.524;13.422;2023-04-26T02:01:10;3.70;99.30
5711;DHT22;61291;52.524;13.422;2023-04-26T02:03:35;3.70;99.90
5711;DHT22;61291;52.524;13.422;2023-04-26T02:06:01;3.80;99.90
5711;DHT22;61291;52.524;13.422;2023-04-26T02:08:27;3.70;99.90
5711;DHT22;61291;52.524;13.422;2023-04-26T02:10:53;3.70;99.90
5711;DHT22;61291;52.524;13.422;2023-04-26T02:13:18;3.70;99.90
5711;DHT22;61291;52.524;13.422;2023-04-26T02:15:50;3.60;99.90
5711;DHT22;61291;52.524;13.422;2023-04-26T02:18:16;3.50;99.90
5711;DHT22;61291;52.524;13.422;2023-04-26T02:20:44;3.50;99.90
5711;DHT22;61291;52.524;13.422;2023-04-26T02:23:11;3.50;99.90
5711;DHT22;61291;52.524;13.422;2023-04-26T02:25:37;3.50;99.90
5711;DHT22;61291;52.524;13.422;2023-04-26T02:28:03;3.50;99.90
5711;DHT22;61291;52.524;13.422;2023-04-26T02:30:29;3.40;99.90
5711;DHT22;61291;52.524;13.422;2023-04-26T02:32:56;3.40;99.90
5711;DHT22;61291;52.524;13.422;2023-04-26T02:35:22;3.40;99.90
5711;DHT22;61291;52.524;13.422;2023-04-26T02:37:48;3.50;99.90
5711;DHT22;61291;52.524;13.422;2023-04-26T02:40:14;3.50;99.90
5711;DHT22;61291;52.524;13.422;2023-04-26T02:42:39;3.50;99.90
5711;DHT22;61291;52.524;13.422;2023-04-26T02:45:06;3.50;99.90
5711;DHT22;61291;52.524;13.422;2023-04-26T02:47:32;3.40;99.90
5711;DHT22;61291;52.524;13.422;2023-04-26T02:49:57;3.30;99.90
5711;DHT22;61291;52.524;13.422;2023-04-26T02:52:23;3.20;99.90
5711;DHT22;61291;52.524;13.422;2023-04-26T02:54:48;3.20;99.90
5711;DHT22;61291;52.524;13.422;2023-04-26T02:57:14;3.20;99.90
5711;DHT22;61291;52.524;13.422;2023-04-26T02:59:39;3.10;99.90
5711;DHT22;61291;52.524;13.422;2023-04-26T03:02:05;3.10;99.90
5711;DHT22;61291;52.524;13.422;2023-04-26T03:04:32;3.10;99.90
5711;DHT22;61291;52.524;13.422;2023-04-26T03:06:58;3.00;99.90
5711;DHT22;61291;52.524;13.422;2023-04-26T03:09:24;3.10;99.90
5711;DHT22;61291;52.524;13.422;2023-04-26T03:11:51;3.10;99.90
5711;DHT22;61291;52.524;13.422;2023-04-26T03:14:16;3.10;99.90
5711;DHT22;61291;52.524;13.422;2023-04-26T03:16:43;3.10;99.90
5711;DHT22;61291;52.524;13.422;2023-04-26T03:19:08;3.10;99.90
5711;DHT22;61291;52.524;13.422;2023-04-26T03:21:34;3.10;99.90
5711;DHT22;61291;52.524;13.422;2023-04-26T03:24:00;3.10;99.90
5711;DHT22;61291;52.524;13.422;2023-04-26T03:26:25;3.10;99.90
5711;DHT22;61291;52.524;13.422;2023-04-26T03:28:51;3.10;99.90
5711;DHT22;61291;52.524;13.422;2023-04-26T03:31:16;3.10;99.90
5711;DHT22;61291;52.524;13.422;2023-04-26T03:33:42;3.10;99.90
5711;DHT22;61291;52.524;13.422;2023-04-26T03:36:07;3.10;99.90
5711;DHT22;61291;52.524;13.422;2023-04-26T03:38:33;3.10;99.90
5711;DHT22;61291;52.524;13.422;2023-04-26T03:40:59;3.10;99.90
5711;DHT22;61291;52.524;13.422;2023-04-26T03:43:24;3.10;99.90
5711;DHT22;61291;52.524;13.422;2023-04-26T03:45:50;3.10;99.90
5711;DHT22;61291;52.524;13.422;2023-04-26T03:48:16;3.10;99.90
5711;DHT22;61291;52.524;13.422;2023-04-26T03:50:42;3.20;99.90
5711;DHT22;61291;52.524;13.422;2023-04-26T03:53:09;3.20;99.90
5711;DHT22;61291;52.524;13.422;2023-04-26T03:55:36;3.20;99.90
5711;DHT22;61291;52.524;13.422;2023-04-26T03:58:01;3.20;99.90
5711;DHT22;61291;52.524;13.422;2023-04-26T04:00:27;3.40;99.90
5711;DHT22;61291;52.524;13.422;2023-04-26T04:02:53;3.50;99.90
5711;DHT22;61291;52.524;13.422;2023-04-26T04:05:18;3.60;99.90
5711;DHT22;61291;52.524;13.422;2023-04-26T04:07:44;3.60;99.90
5711;DHT22;61291;52.524;13.422;2023-04-26T04:10:09;3.70;99.90
5711;DHT22;61291;52.524;13.422;2023-04-26T04:12:35;3.60;99.90
5711;DHT22;61291;52.524;13.422;2023-04-26T04:15:01;3.70;99.90
5711;DHT22;61291;52.524;13.422;2023-04-26T04:17:27;3.70;99.90
5711;DHT22;61291;52.524;13.422;2023-04-26T04:19:52;3.70;99.90
5711;DHT22;61291;52.524;13.422;2023-04-26T04:22:18;3.90;99.90
5711;DHT22;61291;52.524;13.422;2023-04-26T04:24:43;4.00;99.90
5711;DHT22;61291;52.524;13.422;2023-04-26T04:27:09;4.10;99.90
5711;DHT22;61291;52.524;13.422;2023-04-26T04:29:35;4.20;99.90
5711;DHT22;61291;52.524;13.422;2023-04-26T04:32:01;4.20;99.90
5711;DHT22;61291;52.524;13.422;2023-04-26T04:34:26;4.30;99.90
5711;DHT22;61291;52.524;13.422;2023-04-26T04:36:52;4.50;99.90
5711;DHT22;61291;52.524;13.422;2023-04-26T04:39:18;4.70;99.90
5711;DHT22;61291;52.524;13.422;2023-04-26T04:41:44;4.80;99.90
5711;DHT22;61291;52.524;13.422;2023-04-26T04:44:16;5.00;99.90
5711;DHT22;61291;52.524;13.422;2023-04-26T04:46:45;5.20;99.90
5711;DHT22;61291;52.524;13.422;2023-04-26T04:49:11;5.60;99.90
5711;DHT22;61291;52.524;13.422;2023-04-26T04:51:37;5.80;99.90
5711;DHT22;61291;52.524;13.422;2023-04-26T04:54:14;6.20;99.90
5711;DHT22;61291;52.524;13.422;2023-04-26T04:56:40;6.80;99.90
5711;DHT22;61291;52.524;13.422;2023-04-26T04:59:06;7.40;99.90
5711;DHT22;61291;52.524;13.422;2023-04-26T05:01:32;7.90;99.90
5711;DHT22;61291;52.524;13.422;2023-04-26T05:03:58;8.30;99.90
5711;DHT22;61291;52.524;13.422;2023-04-26T05:06:25;8.70;99.90
5711;DHT22;61291;52.524;13.422;2023-04-26T05:08:51;8.80;99.90
5711;DHT22;61291;52.524;13.422;2023-04-26T05:11:17;8.60;99.40
5711;DHT22;61291;52.524;13.422;2023-04-26T05:13:42;8.60;98.40
5711;DHT22;61291;52.524;13.422;2023-04-26T05:16:08;9.10;98.50
5711;DHT22;61291;52.524;13.422;2023-04-26T05:18:34;9.40;97.50
5711;DHT22;61291;52.524;13.422;2023-04-26T05:20:59;9.40;97.10
5711;DHT22;61291;52.524;13.422;2023-04-26T05:23:25;9.50;96.60
5711;DHT22;61291;52.524;13.422;2023-04-26T05:25:50;9.80;96.30
5711;DHT22;61291;52.524;13.422;2023-04-26T05:28:16;10.30;95.10
5711;DHT22;61291;52.524;13.422;2023-04-26T05:30:42;10.90;94.10
5711;DHT22;61291;52.524;13.422;2023-04-26T05:33:07;11.30;93.40
5711;DHT22;61291;52.524;13.422;2023-04-26T05:35:34;11.90;92.60
5711;DHT22;61291;52.524;13.422;2023-04-26T05:37:59;12.30;91.40
5711;DHT22;61291;52.524;13.422;2023-04-26T05:40:25;12.60;90.80
5711;DHT22;61291;52.524;13.422;2023-04-26T05:42:50;12.70;89.70
5711;DHT22;61291;52.524;13.422;2023-04-26T05:45:16;12.70;89.20
5711;DHT22;61291;52.524;13.422;2023-04-26T05:47:42;12.70;88.30
5711;DHT22;61291;52.524;13.422;2023-04-26T05:50:07;12.60;87.00
5711;DHT22;61291;52.524;13.422;2023-04-26T05:52:33;12.50;86.50
5711;DHT22;61291;52.524;13.422;2023-04-26T05:54:59;12.40;86.20
5711;DHT22;61291;52.524;13.422;2023-04-26T05:57:27;12.50;85.90
5711;DHT22;61291;52.524;13.422;2023-04-26T05:59:53;12.80;85.40
5711;DHT22;61291;52.524;13.422;2023-04-26T06:02:18;13.00;84.50
5711;DHT22;61291;52.524;13.422;2023-04-26T06:04:44;14.20;82.20
5711;DHT22;61291;52.524;13.422;2023-04-26T06:07:09;14.70;81.90
5711;DHT22;61291;52.524;13.422;2023-04-26T06:09:34;14.80;80.80
5711;DHT22;61291;52.524;13.422;2023-04-26T06:12:00;15.10;80.40
5711;DHT22;61291;52.524;13.422;2023-04-26T06:14:26;15.30;79.30
5711;DHT22;61291;52.524;13.422;2023-04-26T06:16:52;15.10;78.10
5711;DHT22;61291;52.524;13.422;2023-04-26T06:19:17;14.80;78.10
5711;DHT22;61291;52.524;13.422;2023-04-26T06:21:42;15.20;77.40
5711;DHT22;61291;52.524;13.422;2023-04-26T06:24:08;15.00;76.50
5711;DHT22;61291;52.524;13.422;2023-04-26T06:26:33;15.20;76.40
5711;DHT22;61291;52.524;13.422;2023-04-26T06:28:59;15.50;75.40
5711;DHT22;61291;52.524;13.422;2023-04-26T06:31:25;15.20;75.00
5711;DHT22;61291;52.524;13.422;2023-04-26T06:33:50;14.90;75.30
5711;DHT22;61291;52.524;13.422;2023-04-26T06:36:15;14.40;75.60
5711;DHT22;61291;52.524;13.422;2023-04-26T06:38:41;14.90;75.90
5711;DHT22;61291;52.524;13.422;2023-04-26T06:41:07;15.30;75.30
5711;DHT22;61291;52.524;13.422;2023-04-26T06:43:33;16.70;75.20
5711;DHT22;61291;52.524;13.422;2023-04-26T06:45:58;18.00;74.30
5711;DHT22;61291;52.524;13.422;2023-04-26T06:48:24;18.30;72.60
5711;DHT22;61291;52.524;13.422;2023-04-26T06:50:49;17.20;69.90
5711;DHT22;61291;52.524;13.422;2023-04-26T06:53:15;17.20;71.60
5711;DHT22;61291;52.524;13.422;2023-04-26T06:55:40;17.80;71.30
5711;DHT22;61291;52.524;13.422;2023-04-26T06:58:05;18.00;69.90
5711;DHT22;61291;52.524;13.422;2023-04-26T07:00:31;16.70;70.60
5711;DHT22;61291;52.524;13.422;2023-04-26T07:02:56;18.40;71.10
5711;DHT22;61291;52.524;13.422;2023-04-26T07:05:22;16.10;66.00
5711;DHT22;61291;52.524;13.422;2023-04-26T07:07:47;17.70;69.40
5711;DHT22;61291;52.524;13.422;2023-04-26T07:10:14;18.00;69.20
5711;DHT22;61291;52.524;13.422;2023-04-26T07:12:39;18.30;69.60
5711;DHT22;61291;52.524;13.422;2023-04-26T07:15:05;18.50;69.20
5711;DHT22;61291;52.524;13.422;2023-04-26T07:17:31;19.20;68.90
5711;DHT22;61291;52.524;13.422;2023-04-26T07:19:57;19.80;68.20
5711;DHT22;61291;52.524;13.422;2023-04-26T07:22:23;20.30;67.30
5711;DHT22;61291;52.524;13.422;2023-04-26T07:24:48;20.90;65.80
5711;DHT22;61291;52.524;13.422;2023-04-26T07:27:14;19.70;65.40
5711;DHT22;61291;52.524;13.422;2023-04-26T07:29:40;20.30;66.30
5711;DHT22;61291;52.524;13.422;2023-04-26T07:32:05;19.90;65.10
5711;DHT22;61291;52.524;13.422;2023-04-26T07:34:31;19.80;65.00
5711;DHT22;61291;52.524;13.422;2023-04-26T07:36:56;20.40;65.60
5711;DHT22;61291;52.524;13.422;2023-04-26T07:39:22;20.00;64.10
5711;DHT22;61291;52.524;13.422;2023-04-26T07:41:48;19.40;64.10
5711;DHT22;61291;52.524;13.422;2023-04-26T07:44:13;18.70;63.90
5711;DHT22;61291;52.524;13.422;2023-04-26T07:46:39;17.50;64.20
5711;DHT22;61291;52.524;13.422;2023-04-26T07:49:04;17.20;64.90
5711;DHT22;61291;52.524;13.422;2023-04-26T07:51:30;17.00;64.90
5711;DHT22;61291;52.524;13.422;2023-04-26T07:53:56;16.60;65.00
5711;DHT22;61291;52.524;13.422;2023-04-26T07:56:22;16.40;64.90
5711;DHT22;61291;52.524;13.422;2023-04-26T07:58:50;16.30;65.10
5711;DHT22;61291;52.524;13.422;2023-04-26T08:01:16;16.30;65.20
5711;DHT22;61291;52.524;13.422;2023-04-26T08:03:42;15.60;64.50
5711;DHT22;61291;52.524;13.422;2023-04-26T08:06:07;15.40;65.50
5711;DHT22;61291;52.524;13.422;2023-04-26T08:08:34;15.10;65.90
5711;DHT22;61291;52.524;13.422;2023-04-26T08:11:06;15.00;66.30
5711;DHT22;61291;52.524;13.422;2023-04-26T08:13:31;14.80;66.30
5711;DHT22;61291;52.524;13.422;2023-04-26T08:15:57;14.70;65.80
5711;DHT22;61291;52.524;13.422;2023-04-26T08:18:22;13.90;66.40
5711;DHT22;61291;52.524;13.422;2023-04-26T08:20:48;13.60;67.00
5711;DHT22;61291;52.524;13.422;2023-04-26T08:23:13;13.50;67.90
5711;DHT22;61291;52.524;13.422;2023-04-26T08:25:39;13.60;68.40
5711;DHT22;61291;52.524;13.422;2023-04-26T08:28:05;13.90;68.50
5711;DHT22;61291;52.524;13.422;2023-04-26T08:30:32;14.40;68.70
5711;DHT22;61291;52.524;13.422;2023-04-26T08:32:57;14.90;68.30
5711;DHT22;61291;52.524;13.422;2023-04-26T08:35:23;15.20;68.00
5711;DHT22;61291;52.524;13.422;2023-04-26T08:37:49;15.00;65.60
5711;DHT22;61291;52.524;13.422;2023-04-26T08:40:21;14.70;64.80
5711;DHT22;61291;52.524;13.422;2023-04-26T08:42:47;14.80;64.70
5711;DHT22;61291;52.524;13.422;2023-04-26T08:45:14;13.40;66.70
5711;DHT22;61291;52.524;13.422;2023-04-26T08:47:47;13.30;67.60
5711;DHT22;61291;52.524;13.422;2023-04-26T08:50:14;14.00;68.70
5711;DHT22;61291;52.524;13.422;2023-04-26T08:52:41;14.80;69.10
5711;DHT22;61291;52.524;13.422;2023-04-26T08:55:08;15.70;68.80
5711;DHT22;61291;52.524;13.422;2023-04-26T08:57:34;16.30;68.30
5711;DHT22;61291;52.524;13.422;2023-04-26T09:00:02;16.70;67.10
5711;DHT22;61291;52.524;13.422;2023-04-26T09:02:30;16.90;67.20
5711;DHT22;61291;52.524;13.422;2023-04-26T09:04:56;16.90;66.80
5711;DHT22;61291;52.524;13.422;2023-04-26T09:07:34;16.70;66.20
5711;DHT22;61291;52.524;13.422;2023-04-26T09:10:00;16.20;65.10
5711;DHT22;61291;52.524;13.422;2023-04-26T09:12:28;15.90;64.30
5711;DHT22;61291;52.524;13.422;2023-04-26T09:14:54;15.30;62.30
5711;DHT22;61291;52.524;13.422;2023-04-26T09:17:35;14.60;63.00
5711;DHT22;61291;52.524;13.422;2023-04-26T09:23:07;14.90;64.30
5711;DHT22;61291;52.524;13.422;2023-04-26T09:25:33;15.40;64.20
5711;DHT22;61291;52.524;13.422;2023-04-26T09:28:00;15.90;63.10
5711;DHT22;61291;52.524;13.422;2023-04-26T09:30:27;16.70;62.80
5711;DHT22;61291;52.524;13.422;2023-04-26T09:32:56;17.50;62.60
5711;DHT22;61291;52.524;13.422;2023-04-26T09:35:25;16.80;60.50
5711;DHT22;61291;52.524;13.422;2023-04-26T09:38:11;17.00;60.40
5711;DHT22;61291;52.524;13.422;2023-04-26T09:40:38;16.00;60.70
5711;DHT22;61291;52.524;13.422;2023-04-26T09:43:07;15.70;61.80
5711;DHT22;61291;52.524;13.422;2023-04-26T09:45:42;15.90;62.60
5711;DHT22;61291;52.524;13.422;2023-04-26T09:48:28;16.20;62.90
5711;DHT22;61291;52.524;13.422;2023-04-26T09:51:07;16.80;62.80
5711;DHT22;61291;52.524;13.422;2023-04-26T09:53:46;16.60;61.80
5711;DHT22;61291;52.524;13.422;2023-04-26T09:56:14;16.90;62.40
5711;DHT22;61291;52.524;13.422;2023-04-26T10:01:09;17.30;60.60
5711;DHT22;61291;52.524;13.422;2023-04-26T10:03:36;17.10;59.90
5711;DHT22;61291;52.524;13.422;2023-04-26T10:06:02;16.70;59.50
5711;DHT22;61291;52.524;13.422;2023-04-26T10:08:29;16.00;59.20
5711;DHT22;61291;52.524;13.422;2023-04-26T10:10:55;15.20;59.50
5711;DHT22;61291;52.524;13.422;2023-04-26T10:13:21;15.00;60.00
5711;DHT22;61291;52.524;13.422;2023-04-26T10:15:46;15.10;60.90
5711;DHT22;61291;52.524;13.422;2023-04-26T10:18:12;15.40;61.80
5711;DHT22;61291;52.524;13.422;2023-04-26T10:20:40;15.40;60.60
5711;DHT22;61291;52.524;13.422;2023-04-26T10:23:12;15.60;60.50
5711;DHT22;61291;52.524;13.422;2023-04-26T10:25:41;15.80;60.10
5711;DHT22;61291;52.524;13.422;2023-04-26T10:28:06;15.60;59.40
5711;DHT22;61291;52.524;13.422;2023-04-26T10:30:32;15.30;59.40
5711;DHT22;61291;52.524;13.422;2023-04-26T10:33:17;14.70;59.50
5711;DHT22;61291;52.524;13.422;2023-04-26T10:36:03;14.40;59.90
5711;DHT22;61291;52.524;13.422;2023-04-26T10:38:29;14.00;61.30
5711;DHT22;61291;52.524;13.422;2023-04-26T10:40:55;13.80;62.00
5711;DHT22;61291;52.524;13.422;2023-04-26T10:43:40;13.50;63.00
5711;DHT22;61291;52.524;13.422;2023-04-26T10:46:33;13.60;63.50
5711;DHT22;61291;52.524;13.422;2023-04-26T10:49:18;13.10;65.80
5711;DHT22;61291;52.524;13.422;2023-04-26T10:52:11;13.60;66.00
5711;DHT22;61291;52.524;13.422;2023-04-26T10:54:58;14.10;66.20
5711;DHT22;61291;52.524;13.422;2023-04-26T10:57:47;14.80;66.00
5711;DHT22;61291;52.524;13.422;2023-04-26T11:00:27;15.90;65.80
5711;DHT22;61291;52.524;13.422;2023-04-26T11:03:06;17.00;65.20
5711;DHT22;61291;52.524;13.422;2023-04-26T11:05:49;17.70;63.80
5711;DHT22;61291;52.524;13.422;2023-04-26T11:08:18;17.80;62.00
5711;DHT22;61291;52.524;13.422;2023-04-26T11:11:12;17.50;60.70
5711;DHT22;61291;52.524;13.422;2023-04-26T11:13:41;17.60;61.00
5711;DHT22;61291;52.524;13.422;2023-04-26T11:16:11;17.90;60.70
5711;DHT22;61291;52.524;13.422;2023-04-26T11:18:39;18.20;59.50
5711;DHT22;61291;52.524;13.422;2023-04-26T11:21:06;18.30;58.40
5711;DHT22;61291;52.524;13.422;2023-04-26T11:23:32;18.40;58.10
5711;DHT22;61291;52.524;13.422;2023-04-26T11:26:05;18.50;57.60
5711;DHT22;61291;52.524;13.422;2023-04-26T11:28:32;18.40;57.40
5711;DHT22;61291;52.524;13.422;2023-04-26T11:30:58;18.40;57.50
5711;DHT22;61291;52.524;13.422;2023-04-26T11:33:23;18.30;57.30
5711;DHT22;61291;52.524;13.422;2023-04-26T11:35:53;18.30;56.90
5711;DHT22;61291;52.524;13.422;2023-04-26T11:38:26;18.60;57.00
5711;DHT22;61291;52.524;13.422;2023-04-26T11:40:58;18.70;56.20
5711;DHT22;61291;52.524;13.422;2023-04-26T11:43:39;18.90;56.60
5711;DHT22;61291;52.524;13.422;2023-04-26T11:46:05;18.90;56.30
5711;DHT22;61291;52.524;13.422;2023-04-26T11:48:33;19.20;56.60
5711;DHT22;61291;52.524;13.422;2023-04-26T11:51:00;19.20;55.90
5711;DHT22;61291;52.524;13.422;2023-04-26T11:53:36;19.10;55.80
5711;DHT22;61291;52.524;13.422;2023-04-26T11:56:04;18.30;55.70
5711;DHT22;61291;52.524;13.422;2023-04-26T11:58:29;18.00;55.90
5711;DHT22;61291;52.524;13.422;2023-04-26T12:00:59;17.60;55.90
5711;DHT22;61291;52.524;13.422;2023-04-26T12:03:33;16.90;56.10
5711;DHT22;61291;52.524;13.422;2023-04-26T12:06:03;16.60;56.40
5711;DHT22;61291;52.524;13.422;2023-04-26T12:08:28;16.10;56.50
5711;DHT22;61291;52.524;13.422;2023-04-26T12:11:00;15.50;56.80
5711;DHT22;61291;52.524;13.422;2023-04-26T12:13:27;15.30;57.00
5711;DHT22;61291;52.524;13.422;2023-04-26T12:15:53;15.10;57.20
5711;DHT22;61291;52.524;13.422;2023-04-26T12:18:19;15.40;57.50
5711;DHT22;61291;52.524;13.422;2023-04-26T12:20:45;16.30;57.70
5711;DHT22;61291;52.524;13.422;2023-04-26T12:23:14;16.70;57.50
5711;DHT22;61291;52.524;13.422;2023-04-26T12:25:51;17.00;57.00
5711;DHT22;61291;52.524;13.422;2023-04-26T12:28:16;17.20;57.10
5711;DHT22;61291;52.524;13.422;2023-04-26T12:30:42;17.80;57.30
5711;DHT22;61291;52.524;13.422;2023-04-26T12:33:07;18.20;57.00
5711;DHT22;61291;52.524;13.422;2023-04-26T12:35:33;18.40;56.80
5711;DHT22;61291;52.524;13.422;2023-04-26T12:37:59;18.60;56.70
5711;DHT22;61291;52.524;13.422;2023-04-26T12:40:26;18.40;56.40
5711;DHT22;61291;52.524;13.422;2023-04-26T12:42:52;17.90;56.40
5711;DHT22;61291;52.524;13.422;2023-04-26T12:45:20;17.20;56.70
5711;DHT22;61291;52.524;13.422;2023-04-26T12:47:46;16.70;56.90
5711;DHT22;61291;52.524;13.422;2023-04-26T12:50:12;16.20;57.20
5711;DHT22;61291;52.524;13.422;2023-04-26T12:52:42;15.50;57.70
5711;DHT22;61291;52.524;13.422;2023-04-26T12:55:11;15.20;58.30
5711;DHT22;61291;52.524;13.422;2023-04-26T12:57:38;15.20;58.70
5711;DHT22;61291;52.524;13.422;2023-04-26T13:00:05;15.30;59.00
5711;DHT22;61291;52.524;13.422;2023-04-26T13:02:31;15.80;59.00
5711;DHT22;61291;52.524;13.422;2023-04-26T13:04:58;16.50;59.10
5711;DHT22;61291;52.524;13.422;2023-04-26T13:07:26;16.70;58.20
5711;DHT22;61291;52.524;13.422;2023-04-26T13:09:52;17.20;58.40
5711;DHT22;61291;52.524;13.422;2023-04-26T13:12:17;17.90;58.30
5711;DHT22;61291;52.524;13.422;2023-04-26T13:14:43;18.60;58.00
5711;DHT22;61291;52.524;13.422;2023-04-26T13:17:08;19.00;57.70
5711;DHT22;61291;52.524;13.422;2023-04-26T13:19:36;19.30;57.00
5711;DHT22;61291;52.524;13.422;2023-04-26T13:22:02;19.50;56.60
5711;DHT22;61291;52.524;13.422;2023-04-26T13:24:29;19.00;55.70
5711;DHT22;61291;52.524;13.422;2023-04-26T13:26:55;18.50;55.10
5711;DHT22;61291;52.524;13.422;2023-04-26T13:29:20;18.30;55.70
5711;DHT22;61291;52.524;13.422;2023-04-26T13:31:46;18.20;55.70
5711;DHT22;61291;52.524;13.422;2023-04-26T13:34:12;17.60;55.20
5711;DHT22;61291;52.524;13.422;2023-04-26T13:36:38;17.20;55.40
5711;DHT22;61291;52.524;13.422;2023-04-26T13:39:04;17.00;55.70
5711;DHT22;61291;52.524;13.422;2023-04-26T13:41:32;16.90;56.00
5711;DHT22;61291;52.524;13.422;2023-04-26T13:43:59;16.30;55.10
5711;DHT22;61291;52.524;13.422;2023-04-26T13:46:25;15.60;55.30
5711;DHT22;61291;52.524;13.422;2023-04-26T13:48:51;15.50;55.70
5711;DHT22;61291;52.524;13.422;2023-04-26T13:51:16;15.70;55.80
5711;DHT22;61291;52.524;13.422;2023-04-26T13:53:42;15.50;55.70
5711;DHT22;61291;52.524;13.422;2023-04-26T13:56:07;15.00;56.20
5711;DHT22;61291;52.524;13.422;2023-04-26T13:58:34;14.80;56.60
5711;DHT22;61291;52.524;13.422;2023-04-26T14:00:59;14.60;58.40
5711;DHT22;61291;52.524;13.422;2023-04-26T14:03:26;14.90;58.80
5711;DHT22;61291;52.524;13.422;2023-04-26T14:05:51;15.30;58.60
5711;DHT22;61291;52.524;13.422;2023-04-26T14:08:17;15.80;58.40
5711;DHT22;61291;52.524;13.422;2023-04-26T14:10:43;15.90;58.10
5711;DHT22;61291;52.524;13.422;2023-04-26T14:13:08;16.00;58.00
5711;DHT22;61291;52.524;13.422;2023-04-26T14:15:34;16.20;57.30
5711;DHT22;61291;52.524;13.422;2023-04-26T14:17:59;16.30;57.20
5711;DHT22;61291;52.524;13.422;2023-04-26T14:20:25;15.50;55.60
5711;DHT22;61291;52.524;13.422;2023-04-26T14:22:50;15.20;56.50
5711;DHT22;61291;52.524;13.422;2023-04-26T14:25:16;15.30;56.60
5711;DHT22;61291;52.524;13.422;2023-04-26T14:27:41;15.50;56.40
5711;DHT22;61291;52.524;13.422;2023-04-26T14:30:08;16.00;56.70
5711;DHT22;61291;52.524;13.422;2023-04-26T14:32:33;16.20;56.90
5711;DHT22;61291;52.524;13.422;2023-04-26T14:34:59;16.10;56.90
5711;DHT22;61291;52.524;13.422;2023-04-26T14:37:24;15.90;57.20
5711;DHT22;61291;52.524;13.422;2023-04-26T14:39:49;15.50;57.40
5711;DHT22;61291;52.524;13.422;2023-04-26T14:42:15;15.40;57.70
5711;DHT22;61291;52.524;13.422;2023-04-26T14:44:41;15.10;57.60
5711;DHT22;61291;52.524;13.422;2023-04-26T14:47:06;15.10;57.60
5711;DHT22;61291;52.524;13.422;2023-04-26T14:49:32;14.90;57.80
5711;DHT22;61291;52.524;13.422;2023-04-26T14:51:57;15.10;58.20
5711;DHT22;61291;52.524;13.422;2023-04-26T14:54:23;15.20;58.20
5711;DHT22;61291;52.524;13.422;2023-04-26T14:56:48;15.20;58.10
5711;DHT22;61291;52.524;13.422;2023-04-26T14:59:15;15.20;58.10
5711;DHT22;61291;52.524;13.422;2023-04-26T15:01:41;15.10;58.30
5711;DHT22;61291;52.524;13.422;2023-04-26T15:04:06;14.80;58.20
5711;DHT22;61291;52.524;13.422;2023-04-26T15:06:32;14.60;58.30
5711;DHT22;61291;52.524;13.422;2023-04-26T15:08:58;14.50;58.50
5711;DHT22;61291;52.524;13.422;2023-04-26T15:11:24;14.30;58.60
5711;DHT22;61291;52.524;13.422;2023-04-26T15:13:49;14.20;58.80
5711;DHT22;61291;52.524;13.422;2023-04-26T15:16:15;14.10;58.80
5711;DHT22;61291;52.524;13.422;2023-04-26T15:18:41;14.10;58.80
5711;DHT22;61291;52.524;13.422;2023-04-26T15:21:07;14.20;58.90
5711;DHT22;61291;52.524;13.422;2023-04-26T15:23:33;14.20;59.00
5711;DHT22;61291;52.524;13.422;2023-04-26T15:26:02;14.00;58.90
5711;DHT22;61291;52.524;13.422;2023-04-26T15:28:27;13.70;58.60
5711;DHT22;61291;52.524;13.422;2023-04-26T15:31:01;13.70;58.50
5711;DHT22;61291;52.524;13.422;2023-04-26T15:33:26;13.60;58.60
5711;DHT22;61291;52.524;13.422;2023-04-26T15:35:52;13.60;58.70
5711;DHT22;61291;52.524;13.422;2023-04-26T15:38:17;13.60;58.70
5711;DHT22;61291;52.524;13.422;2023-04-26T15:40:42;13.50;58.60